createdAt,value
2023-04-03T00:01:25.086Z,4.40
2023-04-03T00:05:27.386Z,4.40
2023-04-03T00:09:29.098Z,4.40
2023-04-03T00:13:31.325Z,4.30
2023-04-03T00:17:33.122Z,4.30
2023-04-03T00:21:34.939Z,4.40
2023-04-03T00:25:36.853Z,4.40
2023-04-03T00:29:38.596Z,4.40
2023-04-03T00:34:02.090Z,4.30
2023-04-03T00:38:03.827Z,4.20
2023-04-03T00:42:05.558Z,4.20
2023-04-03T00:46:07.396Z,4.20
2023-04-03T00:50:09.380Z,4.20
2023-04-03T00:54:11.333Z,4.20
2023-04-03T00:58:13.209Z,4.10
2023-04-03T01:02:14.962Z,4.10
2023-04-03T01:06:17.356Z,3.80
2023-04-03T01:10:20.704Z,3.90
2023-04-03T01:14:22.975Z,3.80
2023-04-03T01:18:25.690Z,3.80
2023-04-03T01:22:30.825Z,3.60
2023-04-03T01:26:32.925Z,3.70
2023-04-03T01:30:37.075Z,3.50
2023-04-03T01:34:39.018Z,3.50
2023-04-03T01:38:40.720Z,3.40
2023-04-03T01:42:42.390Z,3.30
2023-04-03T01:46:44.235Z,3.30
2023-04-03T01:50:45.935Z,3.30
2023-04-03T01:54:47.636Z,3.20
2023-04-03T01:58:49.352Z,3.20
2023-04-03T02:02:51.416Z,3.10
2023-04-03T02:06:53.371Z,3.00
2023-04-03T02:10:55.337Z,3.00
2023-04-03T02:14:57.200Z,3.00
2023-04-03T02:18:59.123Z,2.90
2023-04-03T02:23:01.106Z,2.70
2023-04-03T02:27:02.901Z,2.70
2023-04-03T02:31:05.009Z,2.80
2023-04-03T02:35:07.094Z,2.60
2023-04-03T02:39:08.932Z,2.60
2023-04-03T02:43:11.227Z,2.50
2023-04-03T02:47:12.982Z,2.50
2023-04-03T02:51:14.756Z,2.40
2023-04-03T02:55:16.993Z,2.40
2023-04-03T02:59:18.739Z,2.30
2023-04-03T03:03:20.495Z,2.10
2023-04-03T03:07:22.339Z,2.10
2023-04-03T03:11:24.091Z,1.90
2023-04-03T03:15:25.922Z,1.80
2023-04-03T03:19:27.651Z,1.80
2023-04-03T03:23:30.049Z,1.80
2023-04-03T03:27:31.899Z,1.60
2023-04-03T03:31:33.744Z,1.60
2023-04-03T03:35:36.200Z,1.50
2023-04-03T03:39:38.289Z,1.50
2023-04-03T03:43:40.205Z,1.40
2023-04-03T03:47:42.044Z,1.30
2023-04-03T03:51:43.867Z,1.30
2023-04-03T03:55:45.965Z,1.30
2023-04-03T03:59:49.623Z,1.20
2023-04-03T04:03:51.541Z,1.10
2023-04-03T04:07:53.543Z,1.10
2023-04-03T04:11:58.240Z,1.10
2023-04-03T04:15:59.968Z,1.00
2023-04-03T04:20:02.311Z,0.90
2023-04-03T04:24:04.124Z,0.90
2023-04-03T04:28:06.164Z,0.80
2023-04-03T04:32:17.275Z,0.80
2023-04-03T04:36:21.735Z,0.70
2023-04-03T04:40:23.562Z,0.70
2023-04-03T04:44:25.885Z,0.60
2023-04-03T04:48:32.605Z,0.60
2023-04-03T04:52:34.937Z,0.50
2023-04-03T04:56:39.889Z,0.40
2023-04-03T05:00:41.655Z,0.50
2023-04-03T05:04:43.558Z,0.60
2023-04-03T05:08:48.405Z,0.80
2023-04-03T05:12:50.198Z,0.80
2023-04-03T05:16:55.225Z,1.50
2023-04-03T05:21:00.095Z,2.30
2023-04-03T05:25:01.902Z,2.90
2023-04-03T05:29:03.887Z,2.80
2023-04-03T05:33:06.548Z,2.10
2023-04-03T05:37:10.623Z,2.00
2023-04-03T05:41:12.672Z,2.10
2023-04-03T05:45:14.600Z,2.10
2023-04-03T05:49:16.394Z,1.90
2023-04-03T05:53:23.761Z,1.90
2023-04-03T05:57:25.595Z,2.10
2023-04-03T06:01:27.572Z,2.20
2023-04-03T06:05:29.766Z,2.20
2023-04-03T06:09:31.706Z,2.40
2023-04-03T06:13:34.506Z,2.20
2023-04-03T06:17:36.694Z,2.00
2023-04-03T06:21:38.726Z,2.30
2023-04-03T06:25:43.572Z,2.30
2023-04-03T06:29:46.598Z,2.10
2023-04-03T06:33:48.521Z,2.00
2023-04-03T06:37:50.485Z,2.00
2023-04-03T06:41:52.915Z,1.90
2023-04-03T06:45:55.029Z,1.80
2023-04-03T06:49:57.510Z,1.80
2023-04-03T06:54:02.399Z,1.80
2023-04-03T06:58:04.941Z,1.70
2023-04-03T07:02:07.083Z,1.90
2023-04-03T07:06:10.968Z,2.00
2023-04-03T07:10:13.578Z,2.00
2023-04-03T07:14:18.575Z,1.80
2023-04-03T07:18:23.469Z,1.80
2023-04-03T07:22:29.199Z,1.80
2023-04-03T07:26:31.580Z,1.70
2023-04-03T07:30:33.391Z,1.80
2023-04-03T07:34:35.521Z,1.90
2023-04-03T07:38:37.686Z,1.90
2023-04-03T07:42:39.349Z,1.90
2023-04-03T07:46:41.966Z,2.00
2023-04-03T07:50:43.980Z,2.10
2023-04-03T07:54:46.012Z,2.20
2023-04-03T07:58:48.160Z,2.20
2023-04-03T08:02:52.993Z,2.30
2023-04-03T08:06:54.883Z,2.40
2023-04-03T08:10:56.733Z,2.60
2023-04-03T08:15:04.098Z,2.80
2023-04-03T08:19:09.661Z,2.80
2023-04-03T08:23:19.910Z,2.70
2023-04-03T08:27:22.232Z,2.90
2023-04-03T08:31:24.337Z,3.20
2023-04-03T08:35:26.564Z,3.40
2023-04-03T08:39:28.945Z,3.30
2023-04-03T08:44:09.380Z,3.30
2023-04-03T08:48:22.815Z,3.30
2023-04-03T08:52:46.597Z,3.40
2023-04-03T08:56:48.624Z,3.50
2023-04-03T09:00:52.683Z,3.60
2023-04-03T09:04:54.696Z,3.90
2023-04-03T09:09:44.922Z,4.20
2023-04-03T09:14:10.474Z,4.50
2023-04-03T09:18:25.037Z,4.60
2023-04-03T09:22:28.486Z,4.30
2023-04-03T09:26:38.027Z,4.40
2023-04-03T09:30:42.600Z,5.00
2023-04-03T09:34:44.593Z,5.60
2023-04-03T09:38:50.110Z,5.70
2023-04-03T09:43:01.643Z,5.30
2023-04-03T09:47:29.249Z,5.50
2023-04-03T09:51:37.151Z,5.30
2023-04-03T09:55:50.854Z,5.10
2023-04-03T10:00:02.437Z,5.50
2023-04-03T10:04:08.774Z,6.00
2023-04-03T10:08:16.722Z,5.70
2023-04-03T10:12:19.942Z,5.50
2023-04-03T10:16:58.564Z,5.30
2023-04-03T10:21:14.543Z,5.30
2023-04-03T10:25:47.786Z,5.70
2023-04-03T10:30:22.764Z,6.40
2023-04-03T10:34:30.985Z,6.70
2023-04-03T10:38:44.357Z,5.80
2023-04-03T10:42:57.587Z,6.10
2023-04-03T10:47:23.895Z,6.60
2023-04-03T10:51:46.772Z,6.50
2023-04-03T10:56:36.137Z,6.50
2023-04-03T11:00:48.062Z,6.60
2023-04-03T11:05:04.765Z,5.90
2023-04-03T11:09:15.660Z,5.80
2023-04-03T11:13:22.593Z,5.80
2023-04-03T11:18:05.713Z,5.80
2023-04-03T11:22:13.594Z,6.00
2023-04-03T11:26:38.265Z,6.00
2023-04-03T11:31:26.812Z,6.20
2023-04-03T11:35:31.591Z,6.10
2023-04-03T11:39:39.070Z,6.40
2023-04-03T11:44:06.121Z,6.50
2023-04-03T11:48:32.957Z,6.30
2023-04-03T11:52:47.455Z,6.50
2023-04-03T11:56:49.332Z,6.30
2023-04-03T12:00:56.272Z,6.10
2023-04-03T12:05:27.381Z,6.20
2023-04-03T12:09:35.027Z,6.00
2023-04-03T12:13:40.158Z,5.90
2023-04-03T12:17:44.923Z,6.00
2023-04-03T12:21:47.367Z,6.10
2023-04-03T12:25:50.987Z,6.30
2023-04-03T12:30:00.449Z,6.40
2023-04-03T12:34:30.708Z,6.60
2023-04-03T12:39:12.492Z,6.50
2023-04-03T12:43:51.741Z,6.10
2023-04-03T12:47:57.007Z,6.00
2023-04-03T12:51:59.766Z,6.10
2023-04-03T12:56:24.448Z,6.20
2023-04-03T13:00:44.521Z,6.10
2023-04-03T13:04:46.932Z,6.00
2023-04-03T13:09:08.650Z,5.80
2023-04-03T13:13:10.775Z,5.70
2023-04-03T13:17:16.517Z,5.80
2023-04-03T13:21:24.841Z,5.80
2023-04-03T13:25:28.417Z,5.60
2023-04-03T13:29:35.048Z,6.10
2023-04-03T13:33:45.722Z,6.40
2023-04-03T13:37:57.933Z,6.40
2023-04-03T13:42:02.835Z,6.20
2023-04-03T13:46:24.824Z,6.30
2023-04-03T13:50:26.884Z,6.40
2023-04-03T13:54:39.796Z,6.40
2023-04-03T13:59:18.653Z,6.00
2023-04-03T14:03:31.847Z,5.90
2023-04-03T14:07:34.339Z,5.70
2023-04-03T14:11:36.561Z,5.50
2023-04-03T14:15:38.876Z,5.80
2023-04-03T14:19:41.421Z,5.60
2023-04-03T14:23:43.420Z,5.70
2023-04-03T14:27:50.007Z,5.50
2023-04-03T14:32:00.465Z,5.40
2023-04-03T14:36:21.235Z,5.40
2023-04-03T14:40:27.279Z,5.30
2023-04-03T14:44:28.980Z,5.30
2023-04-03T14:48:34.008Z,5.40
2023-04-03T14:52:36.755Z,5.60
2023-04-03T14:56:39.220Z,5.50
2023-04-03T15:00:43.087Z,5.50
2023-04-03T15:04:45.001Z,5.80
2023-04-03T15:08:47.810Z,5.90
2023-04-03T15:12:49.855Z,6.20
2023-04-03T15:16:51.553Z,6.20
2023-04-03T15:20:54.149Z,5.70
2023-04-03T15:24:56.013Z,5.70
2023-04-03T15:28:57.940Z,5.60
2023-04-03T15:32:59.777Z,5.50
2023-04-03T15:37:01.607Z,5.30
2023-04-03T15:41:03.404Z,5.40
2023-04-03T15:45:07.149Z,5.30
2023-04-03T15:49:08.964Z,5.20
2023-04-03T15:53:11.489Z,5.30
2023-04-03T15:57:22.174Z,5.10
2023-04-03T16:01:26.676Z,5.00
2023-04-03T16:09:47.078Z,4.90
2023-04-03T16:13:49.041Z,4.90
2023-04-03T16:17:50.920Z,4.80
2023-04-03T16:21:52.842Z,4.70
2023-04-03T16:25:58.394Z,4.90
2023-04-03T16:30:04.896Z,5.00
2023-04-03T16:34:07.056Z,4.90
2023-04-03T16:38:09.628Z,4.80
2023-04-03T16:42:14.981Z,4.60
2023-04-03T16:46:25.407Z,4.60
2023-04-03T16:50:33.510Z,4.50
2023-04-03T16:54:43.969Z,4.50
2023-04-03T16:59:03.478Z,4.50
2023-04-03T17:03:15.746Z,4.40
2023-04-03T17:07:17.932Z,4.30
2023-04-03T17:11:29.236Z,4.30
2023-04-03T17:15:37.953Z,4.20
2023-04-03T17:20:00.895Z,4.30
2023-04-03T17:24:04.849Z,4.20
2023-04-03T17:28:34.346Z,4.00
2023-04-03T17:32:44.492Z,3.90
2023-04-03T17:37:12.832Z,3.70
2023-04-03T17:41:18.160Z,3.60
2023-04-03T17:45:23.112Z,3.60
2023-04-03T17:49:35.539Z,3.60
2023-04-03T17:53:40.806Z,3.60
2023-04-03T18:02:15.685Z,3.50
2023-04-03T18:06:20.676Z,3.40
2023-04-03T18:10:34.364Z,3.30
2023-04-03T18:14:36.620Z,3.30
2023-04-03T18:18:47.585Z,3.30
2023-04-03T18:22:50.877Z,3.30
2023-04-03T18:26:57.478Z,3.30
2023-04-03T18:31:10.872Z,3.30
2023-04-03T18:35:13.494Z,3.40
2023-04-03T18:39:15.270Z,3.40
2023-04-03T18:43:22.030Z,3.50
2023-04-03T18:47:25.063Z,3.50
2023-04-03T18:51:27.015Z,3.40
2023-04-03T18:55:30.875Z,3.60
2023-04-03T18:59:39.783Z,3.60
2023-04-03T19:03:41.765Z,3.80
2023-04-03T19:07:49.206Z,3.80
2023-04-03T19:11:51.185Z,3.90
2023-04-03T19:15:55.081Z,3.90
2023-04-03T19:20:01.339Z,3.90
2023-04-03T19:24:03.182Z,4.00
2023-04-03T19:28:05.236Z,4.00
2023-04-03T19:32:12.012Z,4.00
2023-04-03T19:36:18.848Z,4.10
2023-04-03T19:40:23.418Z,4.10
2023-04-03T19:44:25.300Z,4.10
2023-04-03T19:48:30.461Z,4.20
2023-04-03T19:52:32.353Z,4.20
2023-04-03T19:56:34.295Z,4.20
2023-04-03T20:00:36.312Z,4.20
2023-04-03T20:04:38.148Z,4.20
2023-04-03T20:08:40.389Z,4.10
2023-04-03T20:12:46.540Z,4.00
2023-04-03T20:16:51.218Z,4.00
2023-04-03T20:20:57.036Z,4.00
2023-04-03T20:25:05.968Z,3.90
2023-04-03T20:29:08.873Z,3.90
2023-04-03T20:33:10.962Z,3.90
2023-04-03T20:37:12.800Z,3.90
2023-04-03T20:41:15.736Z,3.90
2023-04-03T20:45:18.507Z,3.90
2023-04-03T20:49:20.889Z,3.90
2023-04-03T20:53:23.213Z,3.90
2023-04-03T20:57:24.983Z,3.90
2023-04-03T21:01:27.271Z,3.90
2023-04-03T21:05:30.337Z,3.90
2023-04-03T21:10:09.892Z,3.80
2023-04-03T21:14:49.082Z,3.90
2023-04-03T21:19:06.846Z,3.90
2023-04-03T21:23:08.657Z,3.90
2023-04-03T21:27:10.590Z,3.90
2023-04-03T21:31:13.072Z,3.90
2023-04-03T21:35:14.861Z,4.00
2023-04-03T21:39:17.032Z,3.90
2023-04-03T21:43:18.856Z,4.00
2023-04-03T21:47:21.413Z,4.00
2023-04-03T21:51:23.513Z,4.00
2023-04-03T21:55:25.552Z,4.00
2023-04-03T21:59:27.383Z,3.90
2023-04-03T22:03:30.674Z,3.90
2023-04-03T22:07:32.573Z,4.00
2023-04-03T22:11:34.394Z,3.90
2023-04-03T22:15:43.614Z,4.00
2023-04-03T22:19:45.933Z,4.00
2023-04-03T22:23:47.760Z,4.00
2023-04-03T22:27:49.420Z,4.00
2023-04-03T22:31:51.200Z,4.00
2023-04-03T22:35:52.985Z,4.00
2023-04-03T22:39:57.848Z,3.90
2023-04-03T22:43:59.604Z,4.00
2023-04-03T22:48:01.638Z,3.90
2023-04-03T22:52:03.549Z,3.90
2023-04-03T22:56:10.829Z,4.00
2023-04-03T23:00:13.584Z,4.00
2023-04-03T23:04:15.504Z,4.00
2023-04-03T23:08:18.843Z,4.10
2023-04-03T23:12:20.638Z,3.90
2023-04-03T23:16:22.357Z,3.80
2023-04-03T23:20:24.605Z,3.80
2023-04-03T23:24:26.727Z,3.90
2023-04-03T23:28:28.617Z,4.00
2023-04-03T23:32:30.459Z,4.00
2023-04-03T23:36:32.239Z,4.10
2023-04-03T23:40:33.952Z,4.10
2023-04-03T23:44:35.855Z,4.00
2023-04-03T23:48:38.001Z,4.00
2023-04-03T23:52:39.796Z,4.00
2023-04-03T23:56:41.585Z,4.00
